sensor_id;sensor_type;location;lat;lon;timestamp;P1;durP1;ratioP1;P2;durP2;ratioP2
26062;SDS011;13837;48.562;12.108;2023-09-19T00:00:55;6.00;;;5.68;;
26062;SDS011;13837;48.562;12.108;2023-09-19T00:03:23;5.10;;;4.80;;
26062;SDS011;13837;48.562;12.108;2023-09-19T00:05:50;5.28;;;4.97;;
26062;SDS011;13837;48.562;12.108;2023-09-19T00:08:17;5.25;;;4.70;;
26062;SDS011;13837;48.562;12.108;2023-09-19T00:10:47;5.70;;;5.30;;
26062;SDS011;13837;48.562;12.108;2023-09-19T00:13:14;5.70;;;5.20;;
26062;SDS011;13837;48.562;12.108;2023-09-19T00:15:40;5.05;;;4.70;;
26062;SDS011;13837;48.562;12.108;2023-09-19T00:18:08;5.68;;;4.90;;
26062;SDS011;13837;48.562;12.108;2023-09-19T00:20:38;6.22;;;5.72;;
26062;SDS011;13837;48.562;12.108;2023-09-19T00:23:04;5.20;;;4.78;;
26062;SDS011;13837;48.562;12.108;2023-09-19T00:25:31;5.30;;;4.90;;
26062;SDS011;13837;48.562;12.108;2023-09-19T00:27:57;5.45;;;5.15;;
26062;SDS011;13837;48.562;12.108;2023-09-19T00:30:23;4.90;;;4.60;;
26062;SDS011;13837;48.562;12.108;2023-09-19T00:35:23;5.70;;;5.22;;
26062;SDS011;13837;48.562;12.108;2023-09-19T00:37:50;6.50;;;5.40;;
26062;SDS011;13837;48.562;12.108;2023-09-19T00:40:16;5.05;;;4.65;;
26062;SDS011;13837;48.562;12.108;2023-09-19T00:42:44;5.63;;;5.13;;
26062;SDS011;13837;48.562;12.108;2023-09-19T00:45:11;5.50;;;5.07;;
26062;SDS011;13837;48.562;12.108;2023-09-19T00:47:39;5.32;;;5.00;;
26062;SDS011;13837;48.562;12.108;2023-09-19T00:50:06;5.30;;;5.00;;
26062;SDS011;13837;48.562;12.108;2023-09-19T00:52:35;5.28;;;4.97;;
26062;SDS011;13837;48.562;12.108;2023-09-19T00:55:08;5.20;;;5.00;;
26062;SDS011;13837;48.562;12.108;2023-09-19T00:57:36;5.03;;;4.82;;
26062;SDS011;13837;48.562;12.108;2023-09-19T01:00:04;4.93;;;4.53;;
26062;SDS011;13837;48.562;12.108;2023-09-19T01:02:43;5.80;;;5.30;;
26062;SDS011;13837;48.562;12.108;2023-09-19T01:05:11;5.40;;;4.97;;
26062;SDS011;13837;48.562;12.108;2023-09-19T01:07:38;5.28;;;4.82;;
26062;SDS011;13837;48.562;12.108;2023-09-19T01:10:14;5.95;;;5.35;;
26062;SDS011;13837;48.562;12.108;2023-09-19T01:20:55;5.00;;;4.70;;
26062;SDS011;13837;48.562;12.108;2023-09-19T01:26:30;5.80;;;5.40;;
26062;SDS011;13837;48.562;12.108;2023-09-19T01:29:08;5.60;;;5.30;;
26062;SDS011;13837;48.562;12.108;2023-09-19T01:32:03;6.20;;;5.00;;
26062;SDS011;13837;48.562;12.108;2023-09-19T01:34:44;5.38;;;4.97;;
26062;SDS011;13837;48.562;12.108;2023-09-19T01:37:12;4.97;;;4.47;;
26062;SDS011;13837;48.562;12.108;2023-09-19T01:40:01;4.00;;;3.80;;
26062;SDS011;13837;48.562;12.108;2023-09-19T01:42:37;3.80;;;3.50;;
26062;SDS011;13837;48.562;12.108;2023-09-19T01:45:16;4.80;;;4.25;;
26062;SDS011;13837;48.562;12.108;2023-09-19T01:51:08;4.20;;;3.90;;
26062;SDS011;13837;48.562;12.108;2023-09-19T01:53:40;4.15;;;3.95;;
26062;SDS011;13837;48.562;12.108;2023-09-19T01:56:12;4.30;;;4.10;;
26062;SDS011;13837;48.562;12.108;2023-09-19T01:58:48;4.45;;;4.07;;
26062;SDS011;13837;48.562;12.108;2023-09-19T02:01:17;3.97;;;3.78;;
26062;SDS011;13837;48.562;12.108;2023-09-19T02:03:47;4.07;;;3.67;;
26062;SDS011;13837;48.562;12.108;2023-09-19T02:06:15;4.60;;;4.20;;
26062;SDS011;13837;48.562;12.108;2023-09-19T02:08:43;4.25;;;4.05;;
26062;SDS011;13837;48.562;12.108;2023-09-19T02:11:13;4.05;;;3.80;;
26062;SDS011;13837;48.562;12.108;2023-09-19T02:13:39;4.65;;;4.20;;
26062;SDS011;13837;48.562;12.108;2023-09-19T02:16:06;4.53;;;4.32;;
26062;SDS011;13837;48.562;12.108;2023-09-19T02:18:34;4.53;;;4.13;;
26062;SDS011;13837;48.562;12.108;2023-09-19T02:21:02;5.22;;;4.68;;
26062;SDS011;13837;48.562;12.108;2023-09-19T02:23:29;4.53;;;4.05;;
26062;SDS011;13837;48.562;12.108;2023-09-19T02:25:56;4.30;;;4.10;;
26062;SDS011;13837;48.562;12.108;2023-09-19T02:28:41;3.97;;;3.78;;
26062;SDS011;13837;48.562;12.108;2023-09-19T02:31:08;4.20;;;3.90;;
26062;SDS011;13837;48.562;12.108;2023-09-19T02:33:34;7.05;;;5.80;;
26062;SDS011;13837;48.562;12.108;2023-09-19T02:36:01;4.65;;;4.32;;
26062;SDS011;13837;48.562;12.108;2023-09-19T02:38:29;5.23;;;4.60;;
26062;SDS011;13837;48.562;12.108;2023-09-19T02:40:55;4.30;;;3.97;;
26062;SDS011;13837;48.562;12.108;2023-09-19T02:43:22;4.40;;;4.20;;
26062;SDS011;13837;48.562;12.108;2023-09-19T02:45:49;4.47;;;4.07;;
26062;SDS011;13837;48.562;12.108;2023-09-19T02:48:16;5.60;;;4.45;;
26062;SDS011;13837;48.562;12.108;2023-09-19T02:50:43;4.60;;;4.32;;
26062;SDS011;13837;48.562;12.108;2023-09-19T02:53:10;4.95;;;4.63;;
26062;SDS011;13837;48.562;12.108;2023-09-19T02:55:39;4.63;;;4.40;;
26062;SDS011;13837;48.562;12.108;2023-09-19T02:58:08;6.03;;;4.15;;
26062;SDS011;13837;48.562;12.108;2023-09-19T03:00:37;4.53;;;4.13;;
26062;SDS011;13837;48.562;12.108;2023-09-19T03:03:03;4.75;;;4.45;;
26062;SDS011;13837;48.562;12.108;2023-09-19T03:05:32;4.80;;;4.40;;
26062;SDS011;13837;48.562;12.108;2023-09-19T03:07:58;4.45;;;4.03;;
26062;SDS011;13837;48.562;12.108;2023-09-19T03:12:56;4.07;;;3.88;;
26062;SDS011;13837;48.562;12.108;2023-09-19T03:15:25;4.38;;;4.07;;
26062;SDS011;13837;48.562;12.108;2023-09-19T03:17:52;4.90;;;4.47;;
26062;SDS011;13837;48.562;12.108;2023-09-19T03:20:21;5.30;;;4.90;;
26062;SDS011;13837;48.562;12.108;2023-09-19T03:22:48;5.68;;;5.20;;
26062;SDS011;13837;48.562;12.108;2023-09-19T03:25:15;6.05;;;5.53;;
26062;SDS011;13837;48.562;12.108;2023-09-19T03:27:46;8.10;;;6.82;;
26062;SDS011;13837;48.562;12.108;2023-09-19T03:30:13;7.93;;;6.05;;
26062;SDS011;13837;48.562;12.108;2023-09-19T03:32:44;5.20;;;4.90;;
26062;SDS011;13837;48.562;12.108;2023-09-19T03:35:12;5.22;;;4.82;;
26062;SDS011;13837;48.562;12.108;2023-09-19T03:37:40;5.22;;;4.65;;
26062;SDS011;13837;48.562;12.108;2023-09-19T03:40:08;4.88;;;4.57;;
26062;SDS011;13837;48.562;12.108;2023-09-19T03:42:40;4.88;;;4.57;;
26062;SDS011;13837;48.562;12.108;2023-09-19T03:45:09;5.00;;;4.50;;
26062;SDS011;13837;48.562;12.108;2023-09-19T03:47:42;4.20;;;4.00;;
26062;SDS011;13837;48.562;12.108;2023-09-19T03:50:10;4.78;;;4.47;;
26062;SDS011;13837;48.562;12.108;2023-09-19T03:52:44;4.80;;;4.50;;
26062;SDS011;13837;48.562;12.108;2023-09-19T03:55:11;5.18;;;4.70;;
26062;SDS011;13837;48.562;12.108;2023-09-19T03:57:38;4.60;;;4.30;;
26062;SDS011;13837;48.562;12.108;2023-09-19T04:00:08;4.40;;;4.20;;
26062;SDS011;13837;48.562;12.108;2023-09-19T04:02:40;4.75;;;4.40;;
26062;SDS011;13837;48.562;12.108;2023-09-19T04:05:07;4.20;;;4.00;;
26062;SDS011;13837;48.562;12.108;2023-09-19T04:07:34;4.60;;;4.40;;
26062;SDS011;13837;48.562;12.108;2023-09-19T04:10:00;4.90;;;4.50;;
26062;SDS011;13837;48.562;12.108;2023-09-19T04:12:27;4.63;;;4.43;;
26062;SDS011;13837;48.562;12.108;2023-09-19T04:14:53;5.10;;;4.60;;
26062;SDS011;13837;48.562;12.108;2023-09-19T04:17:19;4.72;;;4.53;;
26062;SDS011;13837;48.562;12.108;2023-09-19T04:19:45;4.60;;;4.40;;
26062;SDS011;13837;48.562;12.108;2023-09-19T04:22:12;4.90;;;4.50;;
26062;SDS011;13837;48.562;12.108;2023-09-19T04:24:38;5.10;;;4.70;;
26062;SDS011;13837;48.562;12.108;2023-09-19T04:27:04;4.80;;;4.50;;
26062;SDS011;13837;48.562;12.108;2023-09-19T04:29:32;5.28;;;4.78;;
26062;SDS011;13837;48.562;12.108;2023-09-19T04:31:59;5.03;;;4.72;;
26062;SDS011;13837;48.562;12.108;2023-09-19T04:34:25;4.72;;;4.43;;
26062;SDS011;13837;48.562;12.108;2023-09-19T04:36:51;4.85;;;4.45;;
26062;SDS011;13837;48.562;12.108;2023-09-19T04:39:19;4.97;;;4.63;;
26062;SDS011;13837;48.562;12.108;2023-09-19T04:41:46;5.47;;;5.00;;
26062;SDS011;13837;48.562;12.108;2023-09-19T04:44:13;5.43;;;5.10;;
26062;SDS011;13837;48.562;12.108;2023-09-19T04:46:39;5.10;;;4.80;;
26062;SDS011;13837;48.562;12.108;2023-09-19T04:49:05;5.30;;;5.00;;
26062;SDS011;13837;48.562;12.108;2023-09-19T04:51:30;5.40;;;5.00;;
26062;SDS011;13837;48.562;12.108;2023-09-19T04:53:59;5.50;;;5.00;;
26062;SDS011;13837;48.562;12.108;2023-09-19T04:56:25;4.85;;;4.55;;
26062;SDS011;13837;48.562;12.108;2023-09-19T04:58:53;5.30;;;4.80;;
26062;SDS011;13837;48.562;12.108;2023-09-19T05:01:19;4.68;;;4.38;;
26062;SDS011;13837;48.562;12.108;2023-09-19T05:03:48;5.70;;;5.20;;
26062;SDS011;13837;48.562;12.108;2023-09-19T05:06:17;5.18;;;4.80;;
26062;SDS011;13837;48.562;12.108;2023-09-19T05:08:47;5.15;;;4.70;;
26062;SDS011;13837;48.562;12.108;2023-09-19T05:11:17;4.85;;;4.55;;
26062;SDS011;13837;48.562;12.108;2023-09-19T05:13:44;4.88;;;4.53;;
26062;SDS011;13837;48.562;12.108;2023-09-19T05:16:09;5.30;;;4.88;;
26062;SDS011;13837;48.562;12.108;2023-09-19T05:18:35;4.90;;;4.60;;
26062;SDS011;13837;48.562;12.108;2023-09-19T05:21:02;5.05;;;4.75;;
26062;SDS011;13837;48.562;12.108;2023-09-19T05:23:28;4.97;;;4.65;;
26062;SDS011;13837;48.562;12.108;2023-09-19T05:25:53;5.20;;;4.70;;
26062;SDS011;13837;48.562;12.108;2023-09-19T05:28:21;4.97;;;4.68;;
26062;SDS011;13837;48.562;12.108;2023-09-19T05:30:47;5.35;;;4.10;;
26062;SDS011;13837;48.562;12.108;2023-09-19T05:33:14;5.10;;;4.70;;
26062;SDS011;13837;48.562;12.108;2023-09-19T05:35:39;6.60;;;4.32;;
26062;SDS011;13837;48.562;12.108;2023-09-19T05:38:07;4.63;;;4.30;;
26062;SDS011;13837;48.562;12.108;2023-09-19T05:40:38;4.55;;;4.15;;
26062;SDS011;13837;48.562;12.108;2023-09-19T05:43:05;4.75;;;4.45;;
26062;SDS011;13837;48.562;12.108;2023-09-19T05:45:31;4.47;;;4.20;;
26062;SDS011;13837;48.562;12.108;2023-09-19T05:48:05;4.88;;;4.30;;
26062;SDS011;13837;48.562;12.108;2023-09-19T05:50:42;4.93;;;4.00;;
26062;SDS011;13837;48.562;12.108;2023-09-19T05:53:23;4.38;;;3.97;;
26062;SDS011;13837;48.562;12.108;2023-09-19T06:04:05;4.72;;;4.28;;
26062;SDS011;13837;48.562;12.108;2023-09-19T06:06:31;4.20;;;3.90;;
26062;SDS011;13837;48.562;12.108;2023-09-19T06:08:59;4.10;;;3.90;;
26062;SDS011;13837;48.562;12.108;2023-09-19T06:11:25;4.30;;;4.00;;
26062;SDS011;13837;48.562;12.108;2023-09-19T06:13:53;5.10;;;4.68;;
26062;SDS011;13837;48.562;12.108;2023-09-19T06:16:19;4.05;;;3.85;;
26062;SDS011;13837;48.562;12.108;2023-09-19T06:18:57;4.18;;;3.92;;
26062;SDS011;13837;48.562;12.108;2023-09-19T06:21:29;3.85;;;3.65;;
26062;SDS011;13837;48.562;12.108;2023-09-19T06:24:04;4.80;;;4.32;;
26062;SDS011;13837;48.562;12.108;2023-09-19T06:26:34;5.00;;;4.60;;
26062;SDS011;13837;48.562;12.108;2023-09-19T06:29:03;5.05;;;3.70;;
26062;SDS011;13837;48.562;12.108;2023-09-19T06:31:33;4.20;;;3.80;;
26062;SDS011;13837;48.562;12.108;2023-09-19T06:34:01;4.13;;;3.70;;
26062;SDS011;13837;48.562;12.108;2023-09-19T06:36:28;3.83;;;3.63;;
26062;SDS011;13837;48.562;12.108;2023-09-19T06:38:55;4.68;;;4.00;;
26062;SDS011;13837;48.562;12.108;2023-09-19T06:41:21;3.65;;;3.53;;
26062;SDS011;13837;48.562;12.108;2023-09-19T06:43:50;3.97;;;3.75;;
26062;SDS011;13837;48.562;12.108;2023-09-19T06:46:19;4.10;;;3.80;;
26062;SDS011;13837;48.562;12.108;2023-09-19T06:48:45;4.50;;;4.10;;
26062;SDS011;13837;48.562;12.108;2023-09-19T06:51:13;3.97;;;3.67;;
26062;SDS011;13837;48.562;12.108;2023-09-19T06:53:41;4.07;;;3.78;;
26062;SDS011;13837;48.562;12.108;2023-09-19T06:56:06;4.20;;;3.90;;
26062;SDS011;13837;48.562;12.108;2023-09-19T06:58:32;4.28;;;3.97;;
26062;SDS011;13837;48.562;12.108;2023-09-19T07:00:58;4.32;;;3.92;;
26062;SDS011;13837;48.562;12.108;2023-09-19T07:03:24;3.95;;;3.70;;
26062;SDS011;13837;48.562;12.108;2023-09-19T07:05:51;3.78;;;3.58;;
26062;SDS011;13837;48.562;12.108;2023-09-19T07:08:17;4.07;;;3.50;;
26062;SDS011;13837;48.562;12.108;2023-09-19T07:10:45;4.18;;;3.90;;
26062;SDS011;13837;48.562;12.108;2023-09-19T07:13:13;4.43;;;3.67;;
26062;SDS011;13837;48.562;12.108;2023-09-19T07:15:42;3.65;;;3.42;;
26062;SDS011;13837;48.562;12.108;2023-09-19T07:18:12;4.10;;;3.80;;
26062;SDS011;13837;48.562;12.108;2023-09-19T07:20:39;3.65;;;3.40;;
26062;SDS011;13837;48.562;12.108;2023-09-19T07:23:11;3.67;;;3.42;;
26062;SDS011;13837;48.562;12.108;2023-09-19T07:25:39;5.30;;;3.42;;
26062;SDS011;13837;48.562;12.108;2023-09-19T07:28:05;3.42;;;3.22;;
26062;SDS011;13837;48.562;12.108;2023-09-19T07:30:31;4.10;;;3.83;;
26062;SDS011;13837;48.562;12.108;2023-09-19T07:32:56;3.35;;;3.25;;
26062;SDS011;13837;48.562;12.108;2023-09-19T07:35:22;6.63;;;3.50;;
26062;SDS011;13837;48.562;12.108;2023-09-19T07:37:49;3.35;;;3.13;;
26062;SDS011;13837;48.562;12.108;2023-09-19T07:40:16;3.33;;;3.13;;
26062;SDS011;13837;48.562;12.108;2023-09-19T07:42:42;3.17;;;2.88;;
26062;SDS011;13837;48.562;12.108;2023-09-19T07:45:09;3.00;;;2.90;;
26062;SDS011;13837;48.562;12.108;2023-09-19T07:47:49;3.40;;;3.20;;
26062;SDS011;13837;48.562;12.108;2023-09-19T07:50:16;3.40;;;3.10;;
26062;SDS011;13837;48.562;12.108;2023-09-19T07:52:44;3.83;;;3.53;;
26062;SDS011;13837;48.562;12.108;2023-09-19T07:55:10;2.55;;;2.45;;
26062;SDS011;13837;48.562;12.108;2023-09-19T07:57:40;3.80;;;3.40;;
26062;SDS011;13837;48.562;12.108;2023-09-19T08:00:07;3.35;;;3.15;;
26062;SDS011;13837;48.562;12.108;2023-09-19T08:02:41;3.45;;;3.00;;
26062;SDS011;13837;48.562;12.108;2023-09-19T08:05:07;3.35;;;3.05;;
26062;SDS011;13837;48.562;12.108;2023-09-19T08:07:37;3.10;;;3.00;;
26062;SDS011;13837;48.562;12.108;2023-09-19T08:10:04;3.00;;;2.80;;
26062;SDS011;13837;48.562;12.108;2023-09-19T08:12:39;3.13;;;2.92;;
26062;SDS011;13837;48.562;12.108;2023-09-19T08:15:14;3.53;;;3.33;;
26062;SDS011;13837;48.562;12.108;2023-09-19T08:17:44;3.65;;;3.20;;
26062;SDS011;13837;48.562;12.108;2023-09-19T08:20:13;3.10;;;2.95;;
26062;SDS011;13837;48.562;12.108;2023-09-19T08:25:15;3.30;;;3.10;;
26062;SDS011;13837;48.562;12.108;2023-09-19T08:27:45;3.10;;;2.80;;
26062;SDS011;13837;48.562;12.108;2023-09-19T08:30:15;3.20;;;3.05;;
26062;SDS011;13837;48.562;12.108;2023-09-19T08:32:43;3.05;;;2.85;;
26062;SDS011;13837;48.562;12.108;2023-09-19T08:35:12;4.47;;;3.20;;
26062;SDS011;13837;48.562;12.108;2023-09-19T08:37:48;3.30;;;3.08;;
26062;SDS011;13837;48.562;12.108;2023-09-19T08:40:16;3.42;;;3.00;;
26062;SDS011;13837;48.562;12.108;2023-09-19T08:42:49;3.33;;;2.90;;
26062;SDS011;13837;48.562;12.108;2023-09-19T08:45:16;3.08;;;2.85;;
26062;SDS011;13837;48.562;12.108;2023-09-19T08:47:58;2.85;;;2.75;;
26062;SDS011;13837;48.562;12.108;2023-09-19T08:50:33;4.35;;;3.05;;
26062;SDS011;13837;48.562;12.108;2023-09-19T08:53:10;2.80;;;2.70;;
26062;SDS011;13837;48.562;12.108;2023-09-19T08:55:40;3.60;;;2.70;;
26062;SDS011;13837;48.562;12.108;2023-09-19T08:58:10;3.83;;;2.92;;
26062;SDS011;13837;48.562;12.108;2023-09-19T09:00:38;3.00;;;2.80;;
26062;SDS011;13837;48.562;12.108;2023-09-19T09:03:08;2.88;;;2.67;;
26062;SDS011;13837;48.562;12.108;2023-09-19T09:05:38;3.60;;;3.30;;
26062;SDS011;13837;48.562;12.108;2023-09-19T09:08:11;3.10;;;2.90;;
26062;SDS011;13837;48.562;12.108;2023-09-19T09:10:38;3.00;;;2.80;;
26062;SDS011;13837;48.562;12.108;2023-09-19T09:13:09;2.83;;;2.55;;
26062;SDS011;13837;48.562;12.108;2023-09-19T09:15:39;3.42;;;3.13;;
26062;SDS011;13837;48.562;12.108;2023-09-19T09:18:06;2.40;;;2.30;;
26062;SDS011;13837;48.562;12.108;2023-09-19T09:20:32;2.30;;;2.10;;
26062;SDS011;13837;48.562;12.108;2023-09-19T09:22:58;2.42;;;2.22;;
26062;SDS011;13837;48.562;12.108;2023-09-19T09:28:24;2.20;;;2.10;;
26062;SDS011;13837;48.562;12.108;2023-09-19T09:30:53;2.40;;;2.30;;
26062;SDS011;13837;48.562;12.108;2023-09-19T09:33:20;2.33;;;2.22;;
26062;SDS011;13837;48.562;12.108;2023-09-19T09:35:55;2.47;;;2.20;;
26062;SDS011;13837;48.562;12.108;2023-09-19T09:38:29;1.90;;;1.80;;
26062;SDS011;13837;48.562;12.108;2023-09-19T09:41:14;2.40;;;1.90;;
26062;SDS011;13837;48.562;12.108;2023-09-19T09:43:52;3.85;;;2.40;;
26062;SDS011;13837;48.562;12.108;2023-09-19T09:46:20;1.85;;;1.75;;
26062;SDS011;13837;48.562;12.108;2023-09-19T09:48:57;1.70;;;1.40;;
26062;SDS011;13837;48.562;12.108;2023-09-19T09:51:44;1.55;;;1.50;;
26062;SDS011;13837;48.562;12.108;2023-09-19T09:54:58;2.85;;;2.20;;
26062;SDS011;13837;48.562;12.108;2023-09-19T09:57:30;2.42;;;2.22;;
26062;SDS011;13837;48.562;12.108;2023-09-19T09:59:57;3.55;;;2.40;;
26062;SDS011;13837;48.562;12.108;2023-09-19T10:02:41;3.00;;;2.50;;
26062;SDS011;13837;48.562;12.108;2023-09-19T10:05:16;2.73;;;2.53;;
26062;SDS011;13837;48.562;12.108;2023-09-19T10:07:52;2.97;;;2.78;;
26062;SDS011;13837;48.562;12.108;2023-09-19T10:10:39;2.70;;;2.50;;
26062;SDS011;13837;48.562;12.108;2023-09-19T10:13:18;3.00;;;2.90;;
26062;SDS011;13837;48.562;12.108;2023-09-19T10:16:23;3.10;;;2.35;;
26062;SDS011;13837;48.562;12.108;2023-09-19T10:18:50;2.85;;;2.70;;
26062;SDS011;13837;48.562;12.108;2023-09-19T10:21:23;3.03;;;2.80;;
26062;SDS011;13837;48.562;12.108;2023-09-19T10:23:50;2.80;;;2.60;;
26062;SDS011;13837;48.562;12.108;2023-09-19T10:26:21;2.55;;;2.45;;
26062;SDS011;13837;48.562;12.108;2023-09-19T10:28:49;2.53;;;2.42;;
26062;SDS011;13837;48.562;12.108;2023-09-19T10:31:20;2.58;;;2.47;;
26062;SDS011;13837;48.562;12.108;2023-09-19T10:33:49;2.40;;;2.40;;
26062;SDS011;13837;48.562;12.108;2023-09-19T10:36:15;2.70;;;2.53;;
26062;SDS011;13837;48.562;12.108;2023-09-19T10:38:47;2.63;;;2.53;;
26062;SDS011;13837;48.562;12.108;2023-09-19T10:41:20;2.30;;;2.30;;
26062;SDS011;13837;48.562;12.108;2023-09-19T10:43:48;2.70;;;2.60;;
26062;SDS011;13837;48.562;12.108;2023-09-19T10:46:16;2.92;;;2.72;;
26062;SDS011;13837;48.562;12.108;2023-09-19T10:48:42;2.92;;;2.80;;
26062;SDS011;13837;48.562;12.108;2023-09-19T10:51:20;3.10;;;3.00;;
26062;SDS011;13837;48.562;12.108;2023-09-19T10:53:54;3.67;;;3.25;;
26062;SDS011;13837;48.562;12.108;2023-09-19T10:56:35;2.95;;;2.75;;
26062;SDS011;13837;48.562;12.108;2023-09-19T10:59:09;3.78;;;3.58;;
26062;SDS011;13837;48.562;12.108;2023-09-19T11:01:55;3.60;;;3.40;;
26062;SDS011;13837;48.562;12.108;2023-09-19T11:09:49;4.20;;;4.00;;
26062;SDS011;13837;48.562;12.108;2023-09-19T11:14:54;4.40;;;4.05;;
26062;SDS011;13837;48.562;12.108;2023-09-19T11:30:40;4.15;;;3.85;;
26062;SDS011;13837;48.562;12.108;2023-09-19T11:43:50;3.45;;;3.30;;
26062;SDS011;13837;48.562;12.108;2023-09-19T11:46:20;4.57;;;4.20;;
26062;SDS011;13837;48.562;12.108;2023-09-19T11:48:49;3.60;;;3.40;;
26062;SDS011;13837;48.562;12.108;2023-09-19T11:53:49;3.30;;;3.10;;
26062;SDS011;13837;48.562;12.108;2023-09-19T11:56:20;3.63;;;3.35;;
26062;SDS011;13837;48.562;12.108;2023-09-19T11:58:49;2.90;;;2.80;;
26062;SDS011;13837;48.562;12.108;2023-09-19T12:01:22;2.63;;;2.53;;
26062;SDS011;13837;48.562;12.108;2023-09-19T12:03:54;3.33;;;3.15;;
26062;SDS011;13837;48.562;12.108;2023-09-19T12:06:25;2.83;;;2.72;;
26062;SDS011;13837;48.562;12.108;2023-09-19T12:08:52;3.65;;;3.45;;
26062;SDS011;13837;48.562;12.108;2023-09-19T12:11:23;3.45;;;3.15;;
26062;SDS011;13837;48.562;12.108;2023-09-19T12:13:50;3.08;;;2.78;;
26062;SDS011;13837;48.562;12.108;2023-09-19T12:16:19;3.45;;;2.95;;
26062;SDS011;13837;48.562;12.108;2023-09-19T12:18:49;3.42;;;2.95;;
26062;SDS011;13837;48.562;12.108;2023-09-19T12:26:48;3.08;;;2.88;;
26062;SDS011;13837;48.562;12.108;2023-09-19T12:29:46;2.72;;;2.53;;
26062;SDS011;13837;48.562;12.108;2023-09-19T12:32:19;3.38;;;2.80;;
26062;SDS011;13837;48.562;12.108;2023-09-19T12:35:05;4.95;;;2.80;;
26062;SDS011;13837;48.562;12.108;2023-09-19T12:37:45;2.40;;;2.25;;
26062;SDS011;13837;48.562;12.108;2023-09-19T12:40:18;3.72;;;2.03;;
26062;SDS011;13837;48.562;12.108;2023-09-19T12:42:54;1.85;;;1.70;;
26062;SDS011;13837;48.562;12.108;2023-09-19T12:45:29;2.03;;;1.88;;
26062;SDS011;13837;48.562;12.108;2023-09-19T12:51:01;4.65;;;2.40;;
26062;SDS011;13837;48.562;12.108;2023-09-19T12:53:34;2.00;;;1.90;;
26062;SDS011;13837;48.562;12.108;2023-09-19T12:56:07;2.25;;;2.08;;
26062;SDS011;13837;48.562;12.108;2023-09-19T13:01:19;2.00;;;1.75;;
26062;SDS011;13837;48.562;12.108;2023-09-19T13:04:10;2.20;;;2.00;;
26062;SDS011;13837;48.562;12.108;2023-09-19T13:06:51;2.30;;;2.10;;
26062;SDS011;13837;48.562;12.108;2023-09-19T13:09:21;2.53;;;2.33;;
26062;SDS011;13837;48.562;12.108;2023-09-19T13:11:50;2.38;;;2.20;;
26062;SDS011;13837;48.562;12.108;2023-09-19T13:19:37;2.78;;;2.58;;
26062;SDS011;13837;48.562;12.108;2023-09-19T13:25:19;2.70;;;2.50;;
26062;SDS011;13837;48.562;12.108;2023-09-19T13:27:50;3.63;;;2.28;;
26062;SDS011;13837;48.562;12.108;2023-09-19T13:30:25;2.85;;;2.20;;
26062;SDS011;13837;48.562;12.108;2023-09-19T13:33:08;2.55;;;2.20;;
26062;SDS011;13837;48.562;12.108;2023-09-19T13:35:35;2.70;;;1.95;;
26062;SDS011;13837;48.562;12.108;2023-09-19T13:38:03;3.38;;;1.90;;
26062;SDS011;13837;48.562;12.108;2023-09-19T13:40:29;3.85;;;2.17;;
26062;SDS011;13837;48.562;12.108;2023-09-19T13:42:55;2.65;;;2.45;;
26062;SDS011;13837;48.562;12.108;2023-09-19T13:45:22;3.05;;;1.70;;
26062;SDS011;13837;48.562;12.108;2023-09-19T13:47:49;3.70;;;2.23;;
26062;SDS011;13837;48.562;12.108;2023-09-19T13:50:15;2.00;;;1.80;;
26062;SDS011;13837;48.562;12.108;2023-09-19T13:52:48;2.15;;;2.05;;
26062;SDS011;13837;48.562;12.108;2023-09-19T13:55:16;1.90;;;1.80;;
26062;SDS011;13837;48.562;12.108;2023-09-19T13:57:48;1.92;;;1.83;;
26062;SDS011;13837;48.562;12.108;2023-09-19T14:00:20;1.88;;;1.42;;
26062;SDS011;13837;48.562;12.108;2023-09-19T14:02:49;2.00;;;1.90;;
26062;SDS011;13837;48.562;12.108;2023-09-19T14:05:16;1.73;;;1.63;;
26062;SDS011;13837;48.562;12.108;2023-09-19T14:07:42;1.55;;;1.45;;
26062;SDS011;13837;48.562;12.108;2023-09-19T14:10:08;2.03;;;1.92;;
26062;SDS011;13837;48.562;12.108;2023-09-19T14:12:38;1.50;;;1.40;;
26062;SDS011;13837;48.562;12.108;2023-09-19T14:15:08;2.08;;;1.88;;
26062;SDS011;13837;48.562;12.108;2023-09-19T14:17:35;2.35;;;1.48;;
26062;SDS011;13837;48.562;12.108;2023-09-19T14:20:02;1.50;;;1.40;;
26062;SDS011;13837;48.562;12.108;2023-09-19T14:22:28;1.80;;;1.35;;
26062;SDS011;13837;48.562;12.108;2023-09-19T14:24:56;1.35;;;1.25;;
26062;SDS011;13837;48.562;12.108;2023-09-19T14:27:21;3.22;;;1.60;;
26062;SDS011;13837;48.562;12.108;2023-09-19T14:29:47;2.10;;;2.00;;
26062;SDS011;13837;48.562;12.108;2023-09-19T14:32:13;3.55;;;1.73;;
26062;SDS011;13837;48.562;12.108;2023-09-19T14:34:38;2.25;;;2.05;;
26062;SDS011;13837;48.562;12.108;2023-09-19T14:37:07;1.20;;;1.20;;
26062;SDS011;13837;48.562;12.108;2023-09-19T14:39:36;1.88;;;1.50;;
26062;SDS011;13837;48.562;12.108;2023-09-19T14:42:05;3.05;;;1.65;;
26062;SDS011;13837;48.562;12.108;2023-09-19T14:44:31;1.33;;;1.23;;
26062;SDS011;13837;48.562;12.108;2023-09-19T14:46:57;1.40;;;1.30;;
26062;SDS011;13837;48.562;12.108;2023-09-19T14:49:23;1.33;;;1.20;;
26062;SDS011;13837;48.562;12.108;2023-09-19T14:51:50;1.48;;;1.20;;
26062;SDS011;13837;48.562;12.108;2023-09-19T14:54:17;1.40;;;1.27;;
26062;SDS011;13837;48.562;12.108;2023-09-19T14:56:43;1.60;;;1.35;;
26062;SDS011;13837;48.562;12.108;2023-09-19T14:59:10;1.20;;;1.10;;
26062;SDS011;13837;48.562;12.108;2023-09-19T15:01:36;2.88;;;1.23;;
26062;SDS011;13837;48.562;12.108;2023-09-19T15:04:04;1.25;;;1.15;;
26062;SDS011;13837;48.562;12.108;2023-09-19T15:06:30;1.63;;;1.48;;
26062;SDS011;13837;48.562;12.108;2023-09-19T15:08:56;1.15;;;0.95;;
26062;SDS011;13837;48.562;12.108;2023-09-19T15:11:22;1.52;;;1.42;;
26062;SDS011;13837;48.562;12.108;2023-09-19T15:13:48;1.65;;;1.17;;
26062;SDS011;13837;48.562;12.108;2023-09-19T15:16:16;2.10;;;1.63;;
26062;SDS011;13837;48.562;12.108;2023-09-19T15:18:44;1.75;;;1.02;;
26062;SDS011;13837;48.562;12.108;2023-09-19T15:21:13;2.65;;;1.20;;
26062;SDS011;13837;48.562;12.108;2023-09-19T15:23:40;1.17;;;1.00;;
26062;SDS011;13837;48.562;12.108;2023-09-19T15:26:07;1.50;;;1.40;;
26062;SDS011;13837;48.562;12.108;2023-09-19T15:28:34;1.00;;;1.00;;
26062;SDS011;13837;48.562;12.108;2023-09-19T15:31:01;1.40;;;1.30;;
26062;SDS011;13837;48.562;12.108;2023-09-19T15:33:29;1.48;;;1.10;;
26062;SDS011;13837;48.562;12.108;2023-09-19T15:36:14;1.60;;;1.50;;
26062;SDS011;13837;48.562;12.108;2023-09-19T15:38:56;4.93;;;1.60;;
26062;SDS011;13837;48.562;12.108;2023-09-19T15:43:53;1.30;;;1.20;;
26062;SDS011;13837;48.562;12.108;2023-09-19T15:46:19;3.30;;;1.75;;
26062;SDS011;13837;48.562;12.108;2023-09-19T15:48:46;2.45;;;1.60;;
26062;SDS011;13837;48.562;12.108;2023-09-19T15:51:12;3.25;;;1.98;;
26062;SDS011;13837;48.562;12.108;2023-09-19T15:53:49;1.95;;;1.40;;
26062;SDS011;13837;48.562;12.108;2023-09-19T15:56:16;1.50;;;1.40;;
26062;SDS011;13837;48.562;12.108;2023-09-19T15:58:46;2.55;;;1.60;;
26062;SDS011;13837;48.562;12.108;2023-09-19T16:01:13;1.80;;;1.70;;
26062;SDS011;13837;48.562;12.108;2023-09-19T16:03:42;1.33;;;1.25;;
26062;SDS011;13837;48.562;12.108;2023-09-19T16:06:13;1.95;;;1.85;;
26062;SDS011;13837;48.562;12.108;2023-09-19T16:08:40;3.10;;;1.83;;
26062;SDS011;13837;48.562;12.108;2023-09-19T16:11:07;1.88;;;1.77;;
26062;SDS011;13837;48.562;12.108;2023-09-19T16:13:34;1.77;;;1.63;;
26062;SDS011;13837;48.562;12.108;2023-09-19T16:16:02;1.48;;;1.48;;
26062;SDS011;13837;48.562;12.108;2023-09-19T16:18:28;1.70;;;1.60;;